Terminal Aerodrome Forecast
Issued by NWS Cleveland, OH

Home | Current Version | Previous Version | Graphics & Text | Print | Product List | Glossary Off
Versions: 1 2 3 4 5 6 7 8 9 10 11 12 13 14 15 16 17 18 19 20 21 22 23

183
FTUS41 KCLE 190430 AAA
TAFERI
TAF AMD
KERI 190430Z 1905/1924 04006KT P6SM VCSH BKN021
     FM190700 36012G22KT 4SM -SN OVC005
      TEMPO 1908/1912 1 1/2SM -SN OVC008
     FM191300 34017G25KT 2SM -SHSN OVC010=

USA.gov is the U.S. government's official web portal to all federal, state and local government web resources and services.